createdAt,value
2022-10-11T00:01:13.672Z,99287.09
2022-10-11T00:03:58.719Z,99288.69
2022-10-11T00:06:44.000Z,99299.78
2022-10-11T00:09:30.232Z,99291.88
2022-10-11T00:12:15.458Z,99302.56
2022-10-11T00:15:00.883Z,99301.75
2022-10-11T00:17:46.196Z,99314.84
2022-10-11T00:20:31.326Z,99328.69
2022-10-11T00:23:17.294Z,99323.16
2022-10-11T00:26:06.442Z,99321.97
2022-10-11T00:28:52.960Z,99325.13
2022-10-11T00:31:38.590Z,99326.34
2022-10-11T00:34:24.379Z,99330.69
2022-10-11T00:37:10.045Z,99329.91
2022-10-11T00:39:55.251Z,99327.13
2022-10-11T00:42:40.713Z,99341.78
2022-10-11T00:45:26.268Z,99335.44
2022-10-11T00:48:23.399Z,99336.22
2022-10-11T00:51:43.617Z,99343.78
2022-10-11T00:54:33.210Z,99344.94
2022-10-11T00:57:22.401Z,99339.41
2022-10-11T01:00:10.963Z,99348.53
2022-10-11T01:02:56.862Z,99352.09
2022-10-11T01:05:42.300Z,99357.63
2022-10-11T01:08:27.920Z,99352.09
2022-10-11T01:11:17.240Z,99357.63
2022-10-11T01:14:36.431Z,99363.16
2022-10-11T01:17:33.692Z,99363.16
2022-10-11T01:20:30.874Z,99361.97
2022-10-11T01:23:24.376Z,99367.13
2022-10-11T01:26:18.827Z,99379.81
2022-10-11T01:29:15.326Z,99374.25
2022-10-11T01:32:21.787Z,99376.25
2022-10-11T01:35:15.235Z,99373.47
2022-10-11T01:38:07.258Z,99378.22
2022-10-11T01:41:05.943Z,99376.25
2022-10-11T01:44:00.315Z,99381.00
2022-10-11T01:46:45.916Z,99374.25
2022-10-11T01:49:31.331Z,99383.38
2022-10-11T01:52:16.461Z,99382.59
2022-10-11T01:55:14.065Z,99390.91
2022-10-11T01:57:59.445Z,99393.66
2022-10-11T02:01:10.851Z,99394.44
2022-10-11T02:04:10.835Z,99396.44
2022-10-11T02:07:15.836Z,99402.78
2022-10-11T02:10:15.433Z,99402.00
2022-10-11T02:13:07.958Z,99406.31
2022-10-11T02:15:56.190Z,99405.53
2022-10-11T02:18:47.064Z,99406.75
2022-10-11T02:21:36.296Z,99410.69
2022-10-11T02:24:27.655Z,99404.75
2022-10-11T02:27:14.659Z,99407.53
2022-10-11T02:30:02.772Z,99408.31
2022-10-11T02:32:50.402Z,99407.53
2022-10-11T02:35:42.057Z,99408.72
2022-10-11T02:38:38.786Z,99408.31
2022-10-11T02:41:38.605Z,99409.53
2022-10-11T02:44:32.020Z,99411.50
2022-10-11T02:47:17.709Z,99420.63
2022-10-11T02:50:04.282Z,99430.13
2022-10-11T02:52:49.562Z,99428.56
2022-10-11T02:55:35.171Z,99434.88
2022-10-11T02:58:21.963Z,99437.66
2022-10-11T03:01:07.841Z,99448.75
2022-10-11T03:03:52.913Z,99443.19
2022-10-11T03:06:38.177Z,99453.50
2022-10-11T03:09:23.450Z,99461.81
2022-10-11T03:12:08.665Z,99460.22
2022-10-11T03:14:54.674Z,99467.38
2022-10-11T03:17:39.837Z,99473.69
2022-10-11T03:20:25.263Z,99477.63
2022-10-11T03:23:11.425Z,99480.41
2022-10-11T03:25:57.064Z,99489.53
2022-10-11T03:28:42.640Z,99485.97
2022-10-11T03:31:27.866Z,99496.69
2022-10-11T03:34:15.383Z,99496.31
2022-10-11T03:37:00.789Z,99507.41
2022-10-11T03:39:46.144Z,99510.16
2022-10-11T03:42:31.609Z,99510.16
2022-10-11T03:45:16.866Z,99510.16
2022-10-11T03:48:02.419Z,99515.72
2022-10-11T03:50:49.218Z,99515.72
2022-10-11T03:53:34.731Z,99529.56
2022-10-11T03:56:20.083Z,99522.44
2022-10-11T03:59:05.316Z,99528.38
2022-10-11T04:01:50.705Z,99530.34
2022-10-11T04:04:36.039Z,99536.69
2022-10-11T04:07:21.683Z,99535.13
2022-10-11T04:10:08.223Z,99537.91
2022-10-11T04:12:53.781Z,99541.44
2022-10-11T04:15:39.490Z,99548.97
2022-10-11T04:18:25.200Z,99549.75
2022-10-11T04:21:10.452Z,99553.31
2022-10-11T04:23:55.764Z,99554.91
2022-10-11T04:26:41.049Z,99557.69
2022-10-11T04:29:30.117Z,99565.19
2022-10-11T04:32:17.877Z,99564.78
2022-10-11T04:35:04.835Z,99561.59
2022-10-11T04:37:50.599Z,99570.69
2022-10-11T04:40:35.976Z,99575.41
2022-10-11T04:43:21.804Z,99588.84
2022-10-11T04:46:07.973Z,99582.09
2022-10-11T04:48:54.099Z,99585.63
2022-10-11T04:51:39.380Z,99580.47
2022-10-11T04:54:24.667Z,99580.09
2022-10-11T04:57:10.253Z,99590.34
2022-10-11T04:59:56.086Z,99599.44
2022-10-11T05:02:41.693Z,99595.50
2022-10-11T05:05:26.888Z,99595.88
2022-10-11T05:08:12.427Z,99603.81
2022-10-11T05:11:04.118Z,99610.53
2022-10-11T05:13:49.564Z,99610.16
2022-10-11T05:16:34.742Z,99620.47
2022-10-11T05:19:20.060Z,99626.00
2022-10-11T05:22:05.341Z,99620.47
2022-10-11T05:24:50.758Z,99627.56
2022-10-11T05:27:35.914Z,99628.78
2022-10-11T05:30:21.296Z,99640.25
2022-10-11T05:33:06.647Z,99636.28
2022-10-11T05:35:52.229Z,99644.63
2022-10-11T05:38:38.659Z,99648.19
2022-10-11T05:41:24.261Z,99653.75
2022-10-11T05:44:09.491Z,99652.16
2022-10-11T05:46:54.777Z,99660.91
2022-10-11T05:49:40.215Z,99661.69
2022-10-11T05:52:25.812Z,99676.72
2022-10-11T05:55:11.292Z,99685.84
2022-10-11T05:57:57.604Z,99690.59
2022-10-11T06:00:42.831Z,99687.44
2022-10-11T06:03:28.313Z,99687.44
2022-10-11T06:06:13.889Z,99686.66
2022-10-11T06:08:59.407Z,99697.34
2022-10-11T06:11:45.547Z,99705.28
2022-10-11T06:14:30.976Z,99710.81
2022-10-11T06:17:16.294Z,99703.69
2022-10-11T06:20:01.928Z,99703.69
2022-10-11T06:22:47.463Z,99707.66
2022-10-11T06:25:32.820Z,99708.44
2022-10-11T06:28:18.055Z,99717.16
2022-10-11T06:31:05.296Z,99723.09
2022-10-11T06:33:51.108Z,99720.34
2022-10-11T06:36:36.725Z,99724.31
2022-10-11T06:39:22.061Z,99724.31
2022-10-11T06:42:07.391Z,99727.91
2022-10-11T06:44:52.923Z,99730.69
2022-10-11T06:47:38.220Z,99730.69
2022-10-11T06:50:47.205Z,99737.00
2022-10-11T06:53:28.997Z,99739.38
2022-10-11T06:56:14.335Z,99738.59
2022-10-11T06:59:00.221Z,99737.81
2022-10-11T07:01:45.551Z,99739.38
2022-10-11T07:04:30.747Z,99744.16
2022-10-11T07:07:15.979Z,99748.91
2022-10-11T07:10:01.298Z,99754.47
2022-10-11T07:12:46.655Z,99759.19
2022-10-11T07:15:31.900Z,99758.41
2022-10-11T07:18:17.177Z,99762.34
2022-10-11T07:21:06.911Z,99760.78
2022-10-11T07:23:52.696Z,99766.34
2022-10-11T07:26:38.579Z,99771.09
2022-10-11T07:29:24.817Z,99770.69
2022-10-11T07:32:10.206Z,99772.66
2022-10-11T07:34:56.608Z,99774.66
2022-10-11T07:37:42.084Z,99779.00
2022-10-11T07:40:27.080Z,99786.13
2022-10-11T07:43:13.923Z,99781.78
2022-10-11T07:46:04.445Z,99779.00
2022-10-11T07:48:50.369Z,99785.31
2022-10-11T07:51:35.566Z,99786.13
2022-10-11T07:54:20.938Z,99784.53
2022-10-11T07:57:06.039Z,99788.91
2022-10-11T07:59:51.623Z,99779.78
2022-10-11T08:02:36.845Z,99794.47
2022-10-11T08:05:22.176Z,99786.13
2022-10-11T08:08:07.526Z,99791.69
2022-10-11T08:10:52.829Z,99786.13
2022-10-11T08:13:38.407Z,99790.09
2022-10-11T08:16:23.957Z,99784.53
2022-10-11T08:19:10.552Z,99789.69
2022-10-11T08:21:55.855Z,99791.69
2022-10-11T08:24:41.071Z,99795.25
2022-10-11T08:27:26.561Z,99791.25
2022-10-11T08:30:12.611Z,99800.41
2022-10-11T08:32:57.698Z,99796.41
2022-10-11T08:35:43.052Z,99800.41
2022-10-11T08:38:28.328Z,99802.75
2022-10-11T08:41:22.632Z,99795.63
2022-10-11T08:44:51.901Z,99798.81
2022-10-11T08:47:45.182Z,99801.97
2022-10-11T08:50:30.535Z,99801.56
2022-10-11T08:53:28.746Z,99800.41
2022-10-11T08:56:16.405Z,99813.06
2022-10-11T08:59:15.471Z,99807.50
2022-10-11T09:02:20.078Z,99808.31
2022-10-11T09:05:06.337Z,99799.19
2022-10-11T09:08:10.073Z,99810.28
2022-10-11T09:11:04.494Z,99807.50
2022-10-11T09:14:08.281Z,99806.31
2022-10-11T09:17:04.571Z,99805.53
2022-10-11T09:20:00.077Z,99809.50
2022-10-11T09:23:04.912Z,99806.31
2022-10-11T09:25:57.324Z,99804.75
2022-10-11T09:29:01.181Z,99815.44
2022-10-11T09:31:52.084Z,99802.34
2022-10-11T09:34:38.113Z,99806.31
2022-10-11T09:37:39.931Z,99803.53
2022-10-11T09:40:35.354Z,99809.91
2022-10-11T09:43:20.554Z,99805.13
2022-10-11T09:46:20.648Z,99814.63
2022-10-11T09:49:11.374Z,99810.69
2022-10-11T09:52:00.232Z,99807.50
2022-10-11T09:54:58.310Z,99806.69
2022-10-11T09:57:54.578Z,99806.69
2022-10-11T10:00:39.808Z,99808.69
2022-10-11T10:03:36.472Z,99808.28
2022-10-11T10:06:27.592Z,99806.69
2022-10-11T10:09:30.231Z,99803.94
2022-10-11T10:12:21.725Z,99807.09
2022-10-11T10:15:23.424Z,99804.31
2022-10-11T10:18:24.482Z,99809.88
2022-10-11T10:21:14.703Z,99812.63
2022-10-11T10:24:04.695Z,99817.00
2022-10-11T10:27:07.046Z,99813.44
2022-10-11T10:30:07.853Z,99808.69
2022-10-11T10:33:11.609Z,99809.09
2022-10-11T10:36:04.399Z,99811.44
2022-10-11T10:38:56.427Z,99806.31
2022-10-11T10:41:41.874Z,99819.38
2022-10-11T10:44:27.153Z,99818.97
2022-10-11T10:47:22.679Z,99825.72
2022-10-11T10:50:44.389Z,99828.09
2022-10-11T10:53:40.765Z,99825.34
2022-10-11T10:56:50.200Z,99820.97
2022-10-11T11:00:01.770Z,99821.34
2022-10-11T11:02:53.233Z,99818.56
2022-10-11T11:05:52.725Z,99819.78
2022-10-11T11:08:53.130Z,99829.28
2022-10-11T11:11:53.708Z,99822.56
2022-10-11T11:14:55.378Z,99828.09
2022-10-11T11:18:18.387Z,99812.63
2022-10-11T11:21:13.084Z,99817.78
2022-10-11T11:24:01.359Z,99820.19
2022-10-11T11:27:10.200Z,99817.41
2022-10-11T11:30:13.647Z,99809.09
2022-10-11T11:33:18.980Z,99806.31
2022-10-11T11:36:13.655Z,99809.88
2022-10-11T11:39:02.742Z,99808.25
2022-10-11T11:42:04.468Z,99805.50
2022-10-11T11:44:51.716Z,99807.47
2022-10-11T11:47:46.215Z,99805.88
2022-10-11T11:50:43.800Z,99801.53
2022-10-11T11:53:59.195Z,99805.09
2022-10-11T11:56:44.715Z,99803.53
2022-10-11T11:59:55.184Z,99802.31
2022-10-11T12:02:51.616Z,99799.94
2022-10-11T12:05:37.319Z,99797.16
2022-10-11T12:08:30.932Z,99801.94
2022-10-11T12:11:25.671Z,99790.84
2022-10-11T12:14:16.403Z,99796.38
2022-10-11T12:17:07.203Z,99801.16
2022-10-11T12:20:09.648Z,99790.84
2022-10-11T12:23:19.939Z,99795.59
2022-10-11T12:26:27.370Z,99795.63
2022-10-11T12:29:20.139Z,99795.63
2022-10-11T12:32:06.549Z,99781.34
2022-10-11T12:35:30.731Z,99784.53
2022-10-11T12:38:22.127Z,99794.84
2022-10-11T12:41:10.743Z,99787.72
2022-10-11T12:44:24.121Z,99786.88
2022-10-11T12:47:34.539Z,99787.72
2022-10-11T12:50:40.436Z,99787.72
2022-10-11T12:53:42.758Z,99777.00
2022-10-11T12:56:49.833Z,99774.22
2022-10-11T12:59:41.536Z,99781.78
2022-10-11T13:02:35.932Z,99777.81
2022-10-11T13:05:35.947Z,99777.81
2022-10-11T13:08:31.454Z,99781.38
2022-10-11T13:11:21.231Z,99784.16
2022-10-11T13:14:11.933Z,99785.31
2022-10-11T13:17:06.770Z,99780.59
2022-10-11T13:20:00.818Z,99783.38
2022-10-11T13:22:49.961Z,99789.31
2022-10-11T13:25:38.769Z,99784.53
2022-10-11T13:28:25.296Z,99793.28
2022-10-11T13:31:11.024Z,99790.09
2022-10-11T13:33:59.270Z,99784.53
2022-10-11T13:36:44.608Z,99791.28
2022-10-11T13:39:35.333Z,99776.66
2022-10-11T13:42:28.099Z,99783.38
2022-10-11T13:45:14.561Z,99789.31
2022-10-11T13:47:59.786Z,99785.34
2022-10-11T13:50:52.306Z,99782.19
2022-10-11T13:53:37.755Z,99780.59
2022-10-11T13:56:23.128Z,99777.44
2022-10-11T13:59:17.802Z,99770.28
2022-10-11T14:02:04.483Z,99771.50
2022-10-11T14:04:50.138Z,99778.59
2022-10-11T14:07:39.230Z,99777.41
2022-10-11T14:10:24.733Z,99778.97
2022-10-11T14:13:29.288Z,99780.94
2022-10-11T14:16:20.758Z,99779.75
2022-10-11T14:19:11.202Z,99769.03
2022-10-11T14:21:56.825Z,99778.53
2022-10-11T14:24:43.216Z,99764.66
2022-10-11T14:27:28.892Z,99772.56
2022-10-11T14:30:25.515Z,99770.16
2022-10-11T14:33:12.154Z,99773.72
2022-10-11T14:35:57.614Z,99777.66
2022-10-11T14:38:43.017Z,99774.13
2022-10-11T14:41:28.282Z,99770.94
2022-10-11T14:44:14.646Z,99772.13
2022-10-11T14:47:01.507Z,99772.91
2022-10-11T14:49:46.885Z,99774.09
2022-10-11T14:52:32.763Z,99768.94
2022-10-11T14:55:18.253Z,99773.28
2022-10-11T14:58:04.577Z,99778.44
2022-10-11T15:00:50.084Z,99782.38
2022-10-11T15:03:35.459Z,99775.63
2022-10-11T15:06:24.321Z,99781.56
2022-10-11T15:09:10.335Z,99778.78
2022-10-11T15:11:56.552Z,99777.22
2022-10-11T15:14:41.793Z,99775.63
2022-10-11T15:17:26.936Z,99779.19
2022-10-11T15:20:24.099Z,99770.84
2022-10-11T15:23:10.468Z,99779.56
2022-10-11T15:25:56.228Z,99777.97
2022-10-11T15:28:42.265Z,99781.94
2022-10-11T15:31:27.771Z,99779.94
2022-10-11T15:34:13.252Z,99783.50
2022-10-11T15:36:58.473Z,99781.50
2022-10-11T15:39:43.960Z,99773.97
2022-10-11T15:42:29.238Z,99775.56
2022-10-11T15:45:16.261Z,99785.06
2022-10-11T15:48:02.875Z,99784.69
2022-10-11T15:50:50.124Z,99783.91
2022-10-11T15:53:35.774Z,99789.44
2022-10-11T15:56:21.269Z,99785.88
2022-10-11T15:59:06.379Z,99786.28
2022-10-11T16:01:52.519Z,99792.63
2022-10-11T16:04:38.235Z,99796.16
2022-10-11T16:07:23.528Z,99795.38
2022-10-11T16:10:09.596Z,99793.78
2022-10-11T16:12:56.012Z,99791.41
2022-10-11T16:15:43.368Z,99799.34
2022-10-11T16:18:34.881Z,99793.41
2022-10-11T16:21:23.963Z,99808.84
2022-10-11T16:24:09.497Z,99808.06
2022-10-11T16:26:54.830Z,99810.81
2022-10-11T16:29:40.223Z,99815.16
2022-10-11T16:32:25.506Z,99805.69
2022-10-11T16:35:12.997Z,99808.03
2022-10-11T16:37:58.291Z,99818.75
2022-10-11T16:40:43.816Z,99821.09
2022-10-11T16:43:29.456Z,99816.75
2022-10-11T16:46:14.902Z,99813.97
2022-10-11T16:49:01.633Z,99818.31
2022-10-11T16:51:47.144Z,99822.28
2022-10-11T16:54:32.506Z,99826.63
2022-10-11T16:57:19.974Z,99830.97
2022-10-11T17:00:09.665Z,99828.19
2022-10-11T17:02:55.271Z,99830.19
2022-10-11T17:05:40.876Z,99830.59
2022-10-11T17:08:26.912Z,99834.53
2022-10-11T17:11:12.472Z,99825.41
2022-10-11T17:14:00.624Z,99829.34
2022-10-11T17:16:46.159Z,99831.75
2022-10-11T17:19:32.594Z,99835.69
2022-10-11T17:22:21.850Z,99831.75
2022-10-11T17:25:08.179Z,99831.72
2022-10-11T17:27:56.610Z,99834.06
2022-10-11T17:30:43.896Z,99834.88
2022-10-11T17:33:30.535Z,99832.09
2022-10-11T17:36:23.964Z,99832.09
2022-10-11T17:39:17.096Z,99836.84
2022-10-11T17:42:07.401Z,99839.66
2022-10-11T17:44:53.222Z,99843.63
2022-10-11T17:47:39.109Z,99841.25
2022-10-11T17:50:24.927Z,99848.03
2022-10-11T17:53:10.579Z,99841.72
2022-10-11T17:55:59.056Z,99834.19
2022-10-11T17:58:45.568Z,99842.13
2022-10-11T18:01:31.086Z,99837.75
2022-10-11T18:04:19.338Z,99847.69
2022-10-11T18:07:05.296Z,99849.28
2022-10-11T18:09:50.918Z,99842.94
2022-10-11T18:12:36.226Z,99851.66
2022-10-11T18:15:22.025Z,99842.94
2022-10-11T18:18:07.301Z,99848.13
2022-10-11T18:20:53.452Z,99843.75
2022-10-11T18:23:39.422Z,99845.34
2022-10-11T18:26:30.157Z,99849.31
2022-10-11T18:29:16.408Z,99843.75
2022-10-11T18:32:02.148Z,99839.03
2022-10-11T18:34:47.979Z,99844.19
2022-10-11T18:37:34.023Z,99842.63
2022-10-11T18:40:19.665Z,99836.69
2022-10-11T18:43:05.546Z,99842.22
2022-10-11T18:45:51.323Z,99848.19
2022-10-11T18:48:40.959Z,99843.44
2022-10-11T18:51:28.543Z,99838.28
2022-10-11T18:54:18.510Z,99835.94
2022-10-11T18:57:06.783Z,99839.09
2022-10-11T18:59:53.229Z,99841.09
2022-10-11T19:02:38.643Z,99829.22
2022-10-11T19:05:23.947Z,99827.22
2022-10-11T19:08:09.207Z,99825.22
2022-10-11T19:10:54.511Z,99835.53
2022-10-11T19:13:40.182Z,99838.31
2022-10-11T19:16:29.427Z,99829.59
2022-10-11T19:19:14.904Z,99837.53
2022-10-11T19:22:02.133Z,99831.59
2022-10-11T19:24:47.400Z,99831.25
2022-10-11T19:27:32.803Z,99827.69
2022-10-11T19:30:18.181Z,99831.66
2022-10-11T19:33:04.781Z,99826.91
2022-10-11T19:35:55.459Z,99825.34
2022-10-11T19:38:44.562Z,99836.81
2022-10-11T19:41:29.723Z,99826.50
2022-10-11T19:44:16.016Z,99832.88
2022-10-11T19:47:05.284Z,99842.38
2022-10-11T19:49:50.541Z,99843.97
2022-10-11T19:52:35.864Z,99838.41
2022-10-11T19:55:21.140Z,99845.53
2022-10-11T19:58:08.387Z,99842.38
2022-10-11T20:01:01.965Z,99847.91
2022-10-11T20:03:53.013Z,99845.94
2022-10-11T20:06:41.397Z,99842.78
2022-10-11T20:09:30.860Z,99852.69
2022-10-11T20:12:16.586Z,99842.00
2022-10-11T20:15:01.843Z,99839.22
2022-10-11T20:17:50.228Z,99845.56
2022-10-11T20:20:35.924Z,99848.72
2022-10-11T20:23:27.250Z,99850.31
2022-10-11T20:26:16.308Z,99851.09
2022-10-11T20:29:01.694Z,99849.94
2022-10-11T20:31:46.949Z,99851.88
2022-10-11T20:34:32.243Z,99844.78
2022-10-11T20:37:17.657Z,99853.47
2022-10-11T20:40:06.448Z,99851.53
2022-10-11T20:42:52.175Z,99853.91
2022-10-11T20:45:37.448Z,99855.47
2022-10-11T20:48:22.712Z,99855.06
2022-10-11T20:51:10.254Z,99852.31
2022-10-11T20:53:56.535Z,99853.09
2022-10-11T20:56:41.984Z,99849.91
2022-10-11T20:59:27.528Z,99853.09
2022-10-11T21:02:18.030Z,99847.16
2022-10-11T21:05:05.494Z,99856.66
2022-10-11T21:07:51.013Z,99843.19
2022-10-11T21:10:36.436Z,99851.13
2022-10-11T21:13:22.674Z,99855.09
2022-10-11T21:16:14.588Z,99851.13
2022-10-11T21:19:01.307Z,99861.44
2022-10-11T21:21:52.519Z,99861.44
2022-10-11T21:24:38.985Z,99852.34
2022-10-11T21:27:27.087Z,99855.09
2022-10-11T21:30:12.614Z,99851.50
2022-10-11T21:32:57.983Z,99858.25
2022-10-11T21:35:43.550Z,99851.94
2022-10-11T21:38:29.179Z,99852.72
2022-10-11T21:41:17.580Z,99858.25
2022-10-11T21:44:03.079Z,99852.72
2022-10-11T21:47:06.165Z,99860.25
2022-10-11T21:49:52.240Z,99850.34
2022-10-11T21:52:37.764Z,99853.50
2022-10-11T21:55:23.241Z,99849.94
2022-10-11T21:58:08.563Z,99855.09
2022-10-11T22:00:53.913Z,99854.69
2022-10-11T22:03:39.164Z,99853.91
2022-10-11T22:06:24.244Z,99856.28
2022-10-11T22:09:10.319Z,99844.00
2022-10-11T22:11:56.793Z,99850.38
2022-10-11T22:14:42.083Z,99849.56
2022-10-11T22:17:27.310Z,99846.78
2022-10-11T22:20:12.522Z,99852.31
2022-10-11T22:22:57.731Z,99861.84
2022-10-11T22:25:42.923Z,99847.97
2022-10-11T22:28:28.210Z,99847.19
2022-10-11T22:31:14.931Z,99851.94
2022-10-11T22:34:01.276Z,99858.28
2022-10-11T22:36:47.603Z,99860.25
2022-10-11T22:39:33.018Z,99851.13
2022-10-11T22:42:18.263Z,99857.47
2022-10-11T22:45:04.323Z,99860.25
2022-10-11T22:47:49.772Z,99865.00
2022-10-11T22:50:35.089Z,99862.22
2022-10-11T22:53:20.604Z,99865.41
2022-10-11T22:56:06.682Z,99862.66
2022-10-11T22:58:52.000Z,99863.03
2022-10-11T23:01:37.331Z,99861.06
2022-10-11T23:04:22.654Z,99859.47
2022-10-11T23:07:07.867Z,99863.03
2022-10-11T23:09:53.176Z,99868.59
2022-10-11T23:12:38.755Z,99863.81
2022-10-11T23:15:24.302Z,99860.28
2022-10-11T23:18:10.038Z,99863.03
2022-10-11T23:20:55.352Z,99855.13
2022-10-11T23:23:40.833Z,99855.13
2022-10-11T23:26:26.120Z,99852.34
2022-10-11T23:29:11.320Z,99855.91
2022-10-11T23:31:56.713Z,99853.53
2022-10-11T23:34:42.067Z,99849.56
2022-10-11T23:37:27.294Z,99861.00
2022-10-11T23:40:12.675Z,99859.09
2022-10-11T23:42:58.050Z,99859.88
2022-10-11T23:45:45.210Z,99848.78
2022-10-11T23:48:30.711Z,99856.31
2022-10-11T23:51:16.208Z,99854.69
2022-10-11T23:54:01.339Z,99856.31
2022-10-11T23:56:46.630Z,99853.91
2022-10-11T23:59:31.884Z,99863.00
